Time;durP1;ratioP1;P1;durP2;ratioP2;P2;SDS_P1;SDS_P2;PMS_P1;PMS_P2;Temp;Humidity;BMP_temperature;BMP_pressure;BME280_temperature;BME280_humidity;BME280_pressure;Samples;Min_cycle;Max_cycle;Signal;HPM_P1;HPM_P2
2022/06/23 00:00:03;;;;;;;5.47;2.78;;;;;;;;;;4979485;28;20118;-68
2022/06/23 00:02:32;;;;;;;4.20;2.67;;;;;;;;;;4997972;28;20022;-77
2022/06/23 00:04:59;;;;;;;3.97;2.53;;;;;;;;;;4997409;28;20396;-78
2022/06/23 00:07:28;;;;;;;2.83;2.38;;;;;;;;;;4997411;28;20026;-77
2022/06/23 00:09:59;;;;;;;4.90;2.40;;;;;;;;;;4984628;28;20547;-78
2022/06/23 00:12:27;;;;;;;5.00;2.78;;;;;;;;;;5001871;28;20041;-77
2022/06/23 00:14:57;;;;;;;7.85;2.40;;;;;;;;;;5001470;28;20069;-78
2022/06/23 00:17:29;;;;;;;3.88;2.50;;;;;;;;;;4998915;28;20096;-78
2022/06/23 00:19:58;;;;;;;4.00;2.50;;;;;;;;;;4979407;28;20033;-78
2022/06/23 00:22:26;;;;;;;4.75;2.30;;;;;;;;;;4996224;28;20108;-77
2022/06/23 00:24:57;;;;;;;3.63;2.28;;;;;;;;;;4998275;28;20050;-77
2022/06/23 00:27:30;;;;;;;6.43;2.60;;;;;;;;;;4980457;28;20062;-77
2022/06/23 00:30:00;;;;;;;6.15;2.60;;;;;;;;;;5000868;28;20030;-78
2022/06/23 00:32:26;;;;;;;7.70;3.05;;;;;;;;;;5001178;28;20502;-78
2022/06/23 00:35:00;;;;;;;4.78;2.70;;;;;;;;;;4998160;28;20504;-77
2022/06/23 00:37:26;;;;;;;6.45;3.20;;;;;;;;;;5000676;28;20032;-78
2022/06/23 00:40:04;;;;;;;4.53;2.83;;;;;;;;;;4998519;28;20045;-77
2022/06/23 00:42:49;;;;;;;3.25;2.75;;;;;;;;;;4996687;28;20022;-76
2022/06/23 00:45:20;;;;;;;4.47;2.83;;;;;;;;;;4997597;28;20534;-78
2022/06/23 00:47:51;;;;;;;5.18;3.20;;;;;;;;;;4996740;28;20054;-78
2022/06/23 00:50:25;;;;;;;4.60;2.90;;;;;;;;;;4997521;28;20094;-77
2022/06/23 00:53:02;;;;;;;4.32;3.00;;;;;;;;;;4998006;28;20026;-77
2022/06/23 00:55:44;;;;;;;3.35;2.70;;;;;;;;;;4998114;28;20369;-78
2022/06/23 00:58:30;;;;;;;7.85;3.28;;;;;;;;;;4998312;28;20053;-77
2022/06/23 01:01:10;;;;;;;3.78;2.95;;;;;;;;;;4980056;28;20032;-77
2022/06/23 01:03:47;;;;;;;5.63;3.00;;;;;;;;;;4997743;28;20045;-78
2022/06/23 01:06:29;;;;;;;7.43;3.40;;;;;;;;;;4997969;28;20034;-78
2022/06/23 01:09:09;;;;;;;5.18;3.38;;;;;;;;;;4982821;28;20034;-77
2022/06/23 01:11:46;;;;;;;7.53;3.15;;;;;;;;;;4999560;28;20495;-78
2022/06/23 01:14:36;;;;;;;3.70;3.30;;;;;;;;;;4979861;28;20026;-78
2022/06/23 01:17:16;;;;;;;3.97;3.28;;;;;;;;;;4998110;28;20106;-78
2022/06/23 01:19:51;;;;;;;9.48;3.35;;;;;;;;;;5000181;28;20102;-78
2022/06/23 01:22:50;;;;;;;3.80;2.80;;;;;;;;;;4995592;28;20025;-77
2022/06/23 01:25:43;;;;;;;5.70;3.10;;;;;;;;;;4978832;28;20026;-77
2022/06/23 01:28:21;;;;;;;4.75;3.25;;;;;;;;;;4999205;28;20033;-77
2022/06/23 01:30:57;;;;;;;4.38;2.88;;;;;;;;;;4997364;28;20065;-77
2022/06/23 01:33:30;;;;;;;4.93;2.65;;;;;;;;;;4996700;28;20037;-77
2022/06/23 01:36:24;;;;;;;4.90;2.97;;;;;;;;;;4995714;28;20083;-77
2022/06/23 01:38:54;;;;;;;;;;;;;;;;;;4996611;28;20480;-78
2022/06/23 01:41:33;;;;;;;7.03;2.67;;;;;;;;;;4999230;28;20359;-77
2022/06/23 01:44:08;;;;;;;3.20;2.63;;;;;;;;;;4977103;28;20030;-77
2022/06/23 01:46:39;;;;;;;5.85;2.72;;;;;;;;;;4995758;28;20023;-77
2022/06/23 01:49:21;;;;;;;3.45;2.78;;;;;;;;;;4978132;28;20587;-78
2022/06/23 01:51:52;;;;;;;5.32;3.10;;;;;;;;;;4995569;28;20416;-77
2022/06/23 01:54:20;;;;;;;6.07;3.13;;;;;;;;;;4997351;28;20030;-78
2022/06/23 01:57:23;;;;;;;4.40;2.80;;;;;;;;;;4996701;28;20113;-77
2022/06/23 02:00:01;;;;;;;5.72;3.03;;;;;;;;;;4997286;28;20080;-77
2022/06/23 02:02:43;;;;;;;4.90;2.95;;;;;;;;;;4981399;28;20031;-78
2022/06/23 02:05:23;;;;;;;8.65;2.92;;;;;;;;;;4996205;28;20054;-78
2022/06/23 02:08:13;;;;;;;5.32;3.10;;;;;;;;;;4994985;28;20103;-77
2022/06/23 02:10:49;;;;;;;4.72;3.00;;;;;;;;;;4977387;28;20062;-78
2022/06/23 02:13:25;;;;;;;3.25;2.65;;;;;;;;;;4978074;28;20030;-77
2022/06/23 02:16:11;;;;;;;6.60;3.00;;;;;;;;;;4994935;28;20033;-77
2022/06/23 02:18:55;;;;;;;4.63;3.00;;;;;;;;;;4995182;28;20034;-78
2022/06/23 02:21:32;;;;;;;4.43;3.17;;;;;;;;;;4997600;28;20430;-77
2022/06/23 02:24:12;;;;;;;3.70;3.17;;;;;;;;;;4995668;28;20026;-77
2022/06/23 02:26:46;;;;;;;3.50;3.00;;;;;;;;;;4979516;28;20117;-77
2022/06/23 02:29:24;;;;;;;7.32;3.60;;;;;;;;;;4977389;28;20030;-77
2022/06/23 02:31:57;;;;;;;3.85;3.15;;;;;;;;;;4999064;28;20495;-79
2022/06/23 02:34:36;;;;;;;5.13;3.50;;;;;;;;;;4997403;28;20031;-78
2022/06/23 02:37:40;;;;;;;6.07;3.40;;;;;;;;;;4998494;28;20026;-77
2022/06/23 02:40:17;;;;;;;4.63;3.50;;;;;;;;;;4991958;28;20058;-77
2022/06/23 02:42:47;;;;;;;3.85;3.00;;;;;;;;;;4996629;28;20026;-77
2022/06/23 02:45:45;;;;;;;5.10;3.45;;;;;;;;;;4999099;28;20038;-78
2022/06/23 02:48:50;;;;;;;5.82;3.30;;;;;;;;;;4997802;28;20050;-78
2022/06/23 02:51:44;;;;;;;4.07;3.10;;;;;;;;;;4997179;28;20030;-78
2022/06/23 02:54:25;;;;;;;;;;;;;;;;;;4996214;28;20022;-77
2022/06/23 02:57:09;;;;;;;3.45;3.00;;;;;;;;;;4983205;28;19920;-78
2022/06/23 02:59:53;;;;;;;6.10;2.65;;;;;;;;;;5001098;28;20030;-78
2022/06/23 03:02:39;;;;;;;4.70;3.03;;;;;;;;;;5000052;28;20053;-78
2022/06/23 03:05:07;;;;;;;4.85;3.13;;;;;;;;;;5000505;28;20081;-78
2022/06/23 03:07:40;;;;;;;4.97;3.30;;;;;;;;;;5001682;28;20453;-78
2022/06/23 03:10:14;;;;;;;5.72;3.17;;;;;;;;;;4999587;28;20038;-77
2022/06/23 03:12:43;;;;;;;4.63;3.38;;;;;;;;;;5000253;28;20030;-80
2022/06/23 03:15:21;;;;;;;6.03;3.60;;;;;;;;;;4998266;28;20026;-77
2022/06/23 03:17:56;;;;;;;3.63;3.22;;;;;;;;;;4998548;28;20026;-77
2022/06/23 03:20:39;;;;;;;5.63;3.92;;;;;;;;;;5001507;28;20026;-78
2022/06/23 03:23:23;;;;;;;5.65;3.50;;;;;;;;;;4998884;28;20033;-78
2022/06/23 03:25:58;;;;;;;4.07;3.38;;;;;;;;;;5000189;28;20026;-77
2022/06/23 03:28:28;;;;;;;7.80;3.25;;;;;;;;;;4998310;28;20042;-77
2022/06/23 03:31:03;;;;;;;6.38;3.60;;;;;;;;;;5000839;28;20030;-77
2022/06/23 03:33:53;;;;;;;4.57;3.47;;;;;;;;;;4999324;28;20034;-77
2022/06/23 03:36:26;;;;;;;4.00;3.60;;;;;;;;;;5002511;28;20058;-78
2022/06/23 03:42:08;;;;;;;6.82;3.90;;;;;;;;;;4999142;28;20029;-76
2022/06/23 03:44:40;;;;;;;5.38;3.42;;;;;;;;;;4967372;28;20034;-77
2022/06/23 03:47:21;;;;;;;9.02;3.90;;;;;;;;;;4997269;28;20376;-77
2022/06/23 03:49:57;;;;;;;5.63;3.95;;;;;;;;;;4997544;28;20026;-77
2022/06/23 03:52:34;;;;;;;6.35;4.07;;;;;;;;;;4980242;28;20030;-77
2022/06/23 03:55:26;;;;;;;6.72;4.07;;;;;;;;;;4998541;28;20101;-77
2022/06/23 03:57:58;;;;;;;4.90;3.90;;;;;;;;;;5000287;28;20084;-78
2022/06/23 04:00:34;;;;;;;5.30;3.92;;;;;;;;;;4999095;28;20033;-78
2022/06/23 04:03:24;;;;;;;5.20;4.15;;;;;;;;;;4998143;28;20026;-77
2022/06/23 04:05:55;;;;;;;7.00;3.83;;;;;;;;;;4998451;28;20029;-78
2022/06/23 04:08:22;;;;;;;4.45;4.03;;;;;;;;;;4998617;28;20088;-79
2022/06/23 04:10:50;;;;;;;5.53;3.63;;;;;;;;;;5000061;28;20026;-78
2022/06/23 04:13:24;;;;;;;5.90;4.10;;;;;;;;;;4980375;28;20452;-78
2022/06/23 04:15:52;;;;;;;5.70;4.00;;;;;;;;;;4979825;28;20023;-79
2022/06/23 04:18:23;;;;;;;5.38;3.83;;;;;;;;;;4979266;28;20457;-77
2022/06/23 04:20:56;;;;;;;10.38;3.83;;;;;;;;;;4979471;28;20018;-78
2022/06/23 04:23:30;;;;;;;6.40;4.03;;;;;;;;;;4979412;28;20121;-78
2022/06/23 04:26:06;;;;;;;11.10;4.10;;;;;;;;;;4996417;28;20132;-78
2022/06/23 04:28:34;;;;;;;5.53;4.07;;;;;;;;;;4996471;28;20130;-77
2022/06/23 04:31:04;;;;;;;9.10;3.85;;;;;;;;;;4995742;28;20109;-78
2022/06/23 04:33:29;;;;;;;5.38;4.22;;;;;;;;;;4996145;28;20030;-80
2022/06/23 04:35:58;;;;;;;6.50;4.18;;;;;;;;;;4999590;28;20026;-78
2022/06/23 04:38:36;;;;;;;6.13;3.97;;;;;;;;;;4999034;28;20022;-78
2022/06/23 04:41:16;;;;;;;4.40;4.00;;;;;;;;;;4981329;28;20090;-78
2022/06/23 04:43:48;;;;;;;5.93;3.70;;;;;;;;;;4998052;28;20030;-76
2022/06/23 04:46:17;;;;;;;8.60;4.28;;;;;;;;;;4997307;28;20073;-76
2022/06/23 04:49:00;;;;;;;8.02;4.25;;;;;;;;;;4979619;28;20019;-78
2022/06/23 04:51:31;;;;;;;5.32;3.67;;;;;;;;;;4998196;28;20029;-78
2022/06/23 04:54:09;;;;;;;11.98;3.72;;;;;;;;;;4978999;28;20018;-78
2022/06/23 04:56:41;;;;;;;5.45;3.80;;;;;;;;;;4996665;28;20080;-78
2022/06/23 04:59:25;;;;;;;10.48;3.80;;;;;;;;;;4996624;28;20022;-77
2022/06/23 05:01:56;;;;;;;4.72;3.50;;;;;;;;;;4980460;28;20109;-78
2022/06/23 05:04:27;;;;;;;5.45;3.80;;;;;;;;;;4979822;28;20452;-77
2022/06/23 05:06:55;;;;;;;4.65;3.80;;;;;;;;;;4981839;28;20022;-78
2022/06/23 05:09:32;;;;;;;4.80;3.63;;;;;;;;;;4980303;28;20030;-78
2022/06/23 05:12:05;;;;;;;5.00;3.65;;;;;;;;;;4997304;28;20395;-77
2022/06/23 05:14:52;;;;;;;5.67;3.70;;;;;;;;;;4996367;28;20395;-78
2022/06/23 05:17:24;;;;;;;5.53;3.80;;;;;;;;;;4980054;28;20495;-78
2022/06/23 05:19:54;;;;;;;4.53;3.60;;;;;;;;;;4978425;28;20113;-77
2022/06/23 05:22:26;;;;;;;6.32;3.72;;;;;;;;;;4995299;28;20018;-77
2022/06/23 05:24:53;;;;;;;7.47;3.60;;;;;;;;;;4997608;28;20102;-78
2022/06/23 05:27:32;;;;;;;6.90;3.60;;;;;;;;;;4979577;28;20022;-76
2022/06/23 05:30:31;;;;;;;4.95;3.35;;;;;;;;;;4998231;28;20388;-77
2022/06/23 05:33:42;;;;;;;5.38;3.58;;;;;;;;;;4996165;28;20036;-77
2022/06/23 05:36:51;;;;;;;7.25;3.60;;;;;;;;;;4990118;28;20045;-77
2022/06/23 05:39:30;;;;;;;7.32;3.42;;;;;;;;;;4967864;28;20144;-76
2022/06/23 05:41:59;;;;;;;6.45;3.83;;;;;;;;;;4997735;28;20034;-77
2022/06/23 05:44:43;;;;;;;8.68;3.80;;;;;;;;;;4997282;28;20034;-77
2022/06/23 05:47:12;;;;;;;4.97;3.42;;;;;;;;;;4996851;28;20030;-78
2022/06/23 05:49:46;;;;;;;4.75;3.40;;;;;;;;;;4977946;28;20034;-78
2022/06/23 05:52:19;;;;;;;5.80;3.60;;;;;;;;;;4996727;28;20026;-77
2022/06/23 05:54:55;;;;;;;8.40;3.38;;;;;;;;;;4996322;28;20038;-78
2022/06/23 05:57:28;;;;;;;5.85;4.28;;;;;;;;;;4997606;28;20031;-77
2022/06/23 06:00:03;;;;;;;6.25;3.70;;;;;;;;;;4997322;28;20485;-77
2022/06/23 06:02:39;;;;;;;5.28;3.70;;;;;;;;;;4977566;28;20566;-78
2022/06/23 06:05:05;;;;;;;7.07;3.67;;;;;;;;;;4996414;28;20018;-77
2022/06/23 06:07:36;;;;;;;7.45;3.53;;;;;;;;;;4996800;28;20026;-78
2022/06/23 06:10:06;;;;;;;5.25;4.05;;;;;;;;;;4997083;28;20037;-78
2022/06/23 06:12:38;;;;;;;5.63;3.97;;;;;;;;;;4978866;28;20073;-78
2022/06/23 06:15:18;;;;;;;7.88;3.28;;;;;;;;;;4997679;28;20022;-78
2022/06/23 06:17:44;;;;;;;6.57;3.50;;;;;;;;;;4977989;28;20073;-77
2022/06/23 06:20:11;;;;;;;4.70;3.50;;;;;;;;;;4995425;28;20041;-78
2022/06/23 06:23:02;;;;;;;8.35;3.60;;;;;;;;;;4995348;28;20030;-76
2022/06/23 06:25:38;;;;;;;6.15;3.38;;;;;;;;;;4995952;28;20558;-77
2022/06/23 06:28:17;;;;;;;4.53;2.95;;;;;;;;;;4994406;28;20037;-77
2022/06/23 06:30:53;;;;;;;5.15;3.15;;;;;;;;;;4977897;28;20026;-77
2022/06/23 06:33:29;;;;;;;4.65;3.13;;;;;;;;;;4998376;28;20088;-76
2022/06/23 06:35:55;;;;;;;4.90;3.00;;;;;;;;;;4998181;28;20037;-77
2022/06/23 06:38:23;;;;;;;4.40;2.83;;;;;;;;;;4997945;28;20109;-77
2022/06/23 06:40:51;;;;;;;9.40;3.30;;;;;;;;;;4997715;28;20025;-77
2022/06/23 06:43:21;;;;;;;4.53;3.10;;;;;;;;;;4997641;28;20026;-77
2022/06/23 06:45:47;;;;;;;6.88;2.83;;;;;;;;;;4981208;28;20084;-77
2022/06/23 06:48:19;;;;;;;8.95;3.28;;;;;;;;;;4998062;28;20480;-76
2022/06/23 06:50:48;;;;;;;6.38;3.35;;;;;;;;;;4980570;28;20026;-77
2022/06/23 06:53:16;;;;;;;7.50;3.30;;;;;;;;;;4997521;28;20141;-77
2022/06/23 06:55:47;;;;;;;8.40;3.30;;;;;;;;;;4997233;28;20472;-77
2022/06/23 06:58:25;;;;;;;9.30;3.30;;;;;;;;;;4980244;28;20094;-78
2022/06/23 07:00:56;;;;;;;5.53;3.10;;;;;;;;;;4980056;28;20034;-77
2022/06/23 07:03:24;;;;;;;7.00;3.05;;;;;;;;;;4998540;28;20025;-77
2022/06/23 07:05:56;;;;;;;10.77;3.17;;;;;;;;;;4997498;28;20391;-77
2022/06/23 07:08:37;;;;;;;5.17;3.03;;;;;;;;;;4996935;28;20038;-77
2022/06/23 07:11:36;;;;;;;5.80;2.90;;;;;;;;;;4997213;28;20412;-76
2022/06/23 07:14:15;;;;;;;4.68;2.80;;;;;;;;;;4997250;28;20566;-77
2022/06/23 07:16:51;;;;;;;7.07;2.83;;;;;;;;;;4980244;28;20065;-78
2022/06/23 07:19:40;;;;;;;4.57;2.55;;;;;;;;;;4980302;28;20526;-77
2022/06/23 07:22:30;;;;;;;5.45;2.20;;;;;;;;;;4997478;28;20084;-77
2022/06/23 07:25:09;;;;;;;5.90;2.33;;;;;;;;;;4999065;28;20534;-77
2022/06/23 07:27:44;;;;;;;6.22;2.42;;;;;;;;;;4997206;28;20403;-77
2022/06/23 07:30:22;;;;;;;6.95;2.38;;;;;;;;;;4997244;28;20029;-77
2022/06/23 07:32:54;;;;;;;8.40;2.15;;;;;;;;;;4980871;28;20022;-77
2022/06/23 07:35:39;;;;;;;3.38;2.05;;;;;;;;;;4997137;28;20033;-77
2022/06/23 07:38:07;;;;;;;5.38;2.40;;;;;;;;;;4996855;28;20023;-77
2022/06/23 07:40:40;;;;;;;7.00;2.40;;;;;;;;;;4997843;28;20460;-78
2022/06/23 07:43:30;;;;;;;5.38;2.40;;;;;;;;;;4995983;28;20472;-77
2022/06/23 07:45:58;;;;;;;6.60;2.30;;;;;;;;;;4979670;28;20129;-77
2022/06/23 07:48:25;;;;;;;6.07;2.50;;;;;;;;;;4997398;28;20030;-77
2022/06/23 07:50:50;;;;;;;7.20;2.50;;;;;;;;;;4998249;28;20032;-78
2022/06/23 07:53:25;;;;;;;7.88;2.70;;;;;;;;;;4998671;28;20113;-78
2022/06/23 07:55:51;;;;;;;7.07;2.40;;;;;;;;;;4998559;28;20483;-78
2022/06/23 07:58:21;;;;;;;8.13;2.50;;;;;;;;;;4997857;28;20117;-77
2022/06/23 08:00:57;;;;;;;3.95;2.47;;;;;;;;;;4998316;28;20021;-76
2022/06/23 08:03:42;;;;;;;5.75;2.70;;;;;;;;;;4996722;28;20026;-77
2022/06/23 08:06:13;;;;;;;4.38;2.60;;;;;;;;;;4997355;28;20387;-77
2022/06/23 08:08:39;;;;;;;6.32;2.28;;;;;;;;;;4978878;28;20032;-77
2022/06/23 08:14:01;;;;;;;5.47;2.30;;;;;;;;;;4996630;28;20029;-77
2022/06/23 08:19:33;;;;;;;6.40;2.28;;;;;;;;;;4996561;28;20118;-77
2022/06/23 08:22:07;;;;;;;4.82;2.65;;;;;;;;;;4996095;28;20030;-77
2022/06/23 08:24:36;;;;;;;3.08;2.10;;;;;;;;;;4996254;28;20036;-77
2022/06/23 08:27:07;;;;;;;5.55;2.60;;;;;;;;;;4980578;28;20062;-77
2022/06/23 08:29:38;;;;;;;5.60;2.30;;;;;;;;;;4997990;28;20041;-77
2022/06/23 08:32:07;;;;;;;11.93;2.78;;;;;;;;;;4980637;28;20022;-77
2022/06/23 08:34:34;;;;;;;6.47;2.50;;;;;;;;;;4998198;28;20488;-77
2022/06/23 08:37:09;;;;;;;9.30;2.67;;;;;;;;;;4997395;28;20030;-77
2022/06/23 08:39:46;;;;;;;7.03;2.22;;;;;;;;;;4997682;28;20040;-78
2022/06/23 08:42:28;;;;;;;7.18;2.30;;;;;;;;;;4979154;28;20479;-77
2022/06/23 08:45:02;;;;;;;5.00;2.40;;;;;;;;;;4997774;28;20089;-78
2022/06/23 08:47:30;;;;;;;5.82;2.60;;;;;;;;;;4998257;28;20026;-77
2022/06/23 08:50:02;;;;;;;6.65;2.40;;;;;;;;;;4997551;28;20036;-77
2022/06/23 08:52:57;;;;;;;3.05;2.20;;;;;;;;;;4980851;28;20038;-78
2022/06/23 08:55:33;;;;;;;14.60;2.80;;;;;;;;;;4952699;28;20061;-77
2022/06/23 08:58:14;;;;;;;8.18;2.25;;;;;;;;;;4997044;28;20026;-76
2022/06/23 09:01:15;;;;;;;4.40;2.30;;;;;;;;;;4996226;28;20033;-77
2022/06/23 09:03:52;;;;;;;5.05;2.30;;;;;;;;;;4992479;28;20408;-77
2022/06/23 09:06:40;;;;;;;7.00;2.00;;;;;;;;;;4997906;28;20057;-78
2022/06/23 09:09:23;;;;;;;3.63;2.13;;;;;;;;;;4996727;28;20387;-77
2022/06/23 09:12:02;;;;;;;5.18;2.30;;;;;;;;;;4996211;28;20042;-78
2022/06/23 09:14:51;;;;;;;5.70;2.45;;;;;;;;;;4980910;28;20034;-77
2022/06/23 09:17:57;;;;;;;5.32;2.30;;;;;;;;;;4995674;28;20035;-77
2022/06/23 09:20:46;;;;;;;5.80;2.30;;;;;;;;;;4994801;28;20419;-77
2022/06/23 09:23:38;;;;;;;6.32;2.30;;;;;;;;;;4978620;28;20030;-77
2022/06/23 09:26:16;;;;;;;5.00;2.40;;;;;;;;;;4995588;28;20506;-77
2022/06/23 09:28:52;;;;;;;5.75;2.10;;;;;;;;;;4995665;28;20033;-77
2022/06/23 09:31:42;;;;;;;4.60;2.10;;;;;;;;;;4995848;28;20040;-77
2022/06/23 09:34:45;;;;;;;1.58;1.40;;;;;;;;;;4995017;28;20097;-77
2022/06/23 09:37:52;;;;;;;9.38;1.75;;;;;;;;;;4995140;28;20029;-77
2022/06/23 09:40:38;;;;;;;2.72;1.48;;;;;;;;;;4996495;28;20030;-77
2022/06/23 09:43:49;;;;;;;2.42;1.50;;;;;;;;;;4996226;28;20038;-78
2022/06/23 09:46:36;;;;;;;3.25;1.55;;;;;;;;;;4978532;28;20030;-77
2022/06/23 09:49:39;;;;;;;4.45;1.48;;;;;;;;;;4995673;28;20028;-77
2022/06/23 09:52:28;;;;;;;2.90;1.40;;;;;;;;;;4995470;28;20527;-77
2022/06/23 09:55:14;;;;;;;3.40;1.58;;;;;;;;;;4996224;28;20026;-77
2022/06/23 09:58:04;;;;;;;3.80;1.60;;;;;;;;;;4995419;28;20038;-77
2022/06/23 10:00:38;;;;;;;3.53;1.58;;;;;;;;;;4995664;28;20427;-78
2022/06/23 10:03:20;;;;;;;2.75;1.70;;;;;;;;;;4996043;28;20042;-77
2022/06/23 10:06:00;;;;;;;2.22;1.48;;;;;;;;;;4981176;28;20061;-77
2022/06/23 10:08:45;;;;;;;3.13;1.60;;;;;;;;;;5001516;28;20384;-77
2022/06/23 10:11:35;;;;;;;3.75;1.50;;;;;;;;;;5001409;28;20031;-78
2022/06/23 10:14:21;;;;;;;2.40;1.58;;;;;;;;;;5000563;28;20034;-76
2022/06/23 10:17:22;;;;;;;1.70;1.40;;;;;;;;;;4982364;28;20487;-77
2022/06/23 10:19:56;;;;;;;8.35;1.60;;;;;;;;;;4999924;28;20030;-77
2022/06/23 10:22:34;;;;;;;5.38;1.60;;;;;;;;;;5000115;28;20015;-78
2022/06/23 10:25:05;;;;;;;2.67;1.40;;;;;;;;;;4999338;28;20038;-77
2022/06/23 10:27:56;;;;;;;3.60;1.40;;;;;;;;;;4982108;28;20480;-77
2022/06/23 10:30:36;;;;;;;3.20;1.80;;;;;;;;;;4999581;28;20030;-78
2022/06/23 10:33:23;;;;;;;5.10;1.40;;;;;;;;;;5000054;28;20027;-77
2022/06/23 10:36:01;;;;;;;3.88;1.70;;;;;;;;;;4999653;28;20364;-77
2022/06/23 10:38:27;;;;;;;4.07;1.48;;;;;;;;;;4999162;28;20114;-77
2022/06/23 10:41:17;;;;;;;3.63;1.58;;;;;;;;;;4999247;28;20046;-77
2022/06/23 10:43:55;;;;;;;3.03;1.65;;;;;;;;;;4980842;28;20126;-78
2022/06/23 10:46:27;;;;;;;3.80;1.42;;;;;;;;;;4998687;28;20090;-77
2022/06/23 10:49:23;;;;;;;1.95;1.55;;;;;;;;;;4981635;28;20117;-77
2022/06/23 10:52:20;;;;;;;2.10;1.55;;;;;;;;;;4981501;28;20076;-76
2022/06/23 10:55:14;;;;;;;4.65;1.60;;;;;;;;;;4998586;28;20110;-77
2022/06/23 10:58:12;;;;;;;2.65;1.60;;;;;;;;;;4982443;28;20038;-77
2022/06/23 11:01:16;;;;;;;3.13;1.50;;;;;;;;;;4980840;28;20026;-77
2022/06/23 11:03:50;;;;;;;2.97;1.48;;;;;;;;;;4981481;28;20129;-78
2022/06/23 11:06:29;;;;;;;3.03;1.67;;;;;;;;;;4999975;28;20046;-77
2022/06/23 11:09:07;;;;;;;4.60;1.60;;;;;;;;;;4998747;28;20105;-77
2022/06/23 11:11:54;;;;;;;5.28;1.77;;;;;;;;;;4999439;28;20033;-77
2022/06/23 11:14:50;;;;;;;6.60;1.80;;;;;;;;;;4999686;28;20077;-77
2022/06/23 11:17:46;;;;;;;1.63;1.33;;;;;;;;;;4998276;28;20040;-77
2022/06/23 11:20:17;;;;;;;2.50;1.50;;;;;;;;;;4998452;28;20544;-78
2022/06/23 11:22:52;;;;;;;2.58;1.50;;;;;;;;;;4998395;28;20062;-76
2022/06/23 11:25:44;;;;;;;4.97;1.70;;;;;;;;;;4998513;28;20034;-77
2022/06/23 11:28:37;;;;;;;8.65;1.48;;;;;;;;;;4998227;28;20025;-77
2022/06/23 11:31:27;;;;;;;4.00;1.63;;;;;;;;;;4997841;28;20037;-76
2022/06/23 11:34:07;;;;;;;2.40;1.30;;;;;;;;;;4997224;28;20026;-77
2022/06/23 11:37:03;;;;;;;2.42;1.42;;;;;;;;;;4979996;28;20476;-77
2022/06/23 11:39:45;;;;;;;3.25;1.40;;;;;;;;;;4997797;28;20034;-77
2022/06/23 11:42:38;;;;;;;5.30;1.23;;;;;;;;;;4980538;28;20030;-77
2022/06/23 11:45:36;;;;;;;2.08;1.20;;;;;;;;;;4997806;28;20034;-77
2022/06/23 11:48:08;;;;;;;3.88;1.35;;;;;;;;;;4997577;28;20041;-78
2022/06/23 11:50:43;;;;;;;3.88;1.50;;;;;;;;;;4979940;28;20042;-76
2022/06/23 11:53:15;;;;;;;2.10;1.40;;;;;;;;;;4997639;28;20027;-77
2022/06/23 11:55:59;;;;;;;2.45;1.40;;;;;;;;;;4997104;28;20026;-77
2022/06/23 11:58:46;;;;;;;2.50;1.20;;;;;;;;;;4996953;28;20030;-77
2022/06/23 12:01:25;;;;;;;1.35;1.10;;;;;;;;;;4996921;28;20042;-76
2022/06/23 12:04:23;;;;;;;4.68;1.50;;;;;;;;;;4997299;28;20080;-77
2022/06/23 12:07:10;;;;;;;4.55;1.30;;;;;;;;;;4979262;28;20401;-76
2022/06/23 12:09:48;;;;;;;4.93;1.30;;;;;;;;;;4997027;28;20388;-78
2022/06/23 12:12:13;;;;;;;1.88;1.17;;;;;;;;;;4980478;28;20027;-77
2022/06/23 12:14:39;;;;;;;5.40;1.27;;;;;;;;;;4997885;28;20042;-77
2022/06/23 12:17:09;;;;;;;1.85;1.10;;;;;;;;;;4998382;28;20105;-76
2022/06/23 12:19:47;;;;;;;3.08;1.40;;;;;;;;;;4998683;28;20499;-76
2022/06/23 12:22:21;;;;;;;2.33;1.20;;;;;;;;;;4998941;28;20026;-79
2022/06/23 12:25:05;;;;;;;1.83;1.27;;;;;;;;;;4998515;28;20027;-78
2022/06/23 12:27:37;;;;;;;1.38;1.10;;;;;;;;;;4997498;28;20061;-78
2022/06/23 12:30:08;;;;;;;3.05;1.30;;;;;;;;;;4998104;28;20124;-77
2022/06/23 12:32:56;;;;;;;3.15;1.13;;;;;;;;;;4998327;28;20061;-77
2022/06/23 12:35:35;;;;;;;3.00;1.20;;;;;;;;;;4998394;28;20033;-79
2022/06/23 12:38:13;;;;;;;4.07;1.50;;;;;;;;;;4999220;28;20038;-78
2022/06/23 12:41:02;;;;;;;2.83;1.38;;;;;;;;;;4998590;28;20026;-78
2022/06/23 12:43:37;;;;;;;2.10;1.25;;;;;;;;;;4998926;28;20503;-78
2022/06/23 12:46:19;;;;;;;5.05;1.30;;;;;;;;;;4998365;28;20492;-76
2022/06/23 12:49:05;;;;;;;2.78;1.17;;;;;;;;;;4981982;28;20068;-78
2022/06/23 12:51:35;;;;;;;4.35;1.50;;;;;;;;;;4998573;28;20026;-78
2022/06/23 12:54:20;;;;;;;2.15;1.20;;;;;;;;;;4997605;28;20542;-78
2022/06/23 12:57:17;;;;;;;2.95;1.40;;;;;;;;;;4999654;28;20089;-78
2022/06/23 12:59:59;;;;;;;3.00;1.40;;;;;;;;;;4967092;28;20061;-77
2022/06/23 13:02:43;;;;;;;5.28;1.50;;;;;;;;;;4979459;28;20479;-77
2022/06/23 13:05:27;;;;;;;2.28;1.50;;;;;;;;;;4979208;28;20026;-77
2022/06/23 13:07:59;;;;;;;2.95;1.33;;;;;;;;;;4996984;28;20026;-80
2022/06/23 13:10:49;;;;;;;5.45;1.50;;;;;;;;;;4997423;28;20181;-76
2022/06/23 13:13:32;;;;;;;4.43;1.70;;;;;;;;;;4979587;28;20409;-76
2022/06/23 13:16:03;;;;;;;3.75;1.45;;;;;;;;;;4979623;28;20050;-77
2022/06/23 13:18:36;;;;;;;3.78;1.50;;;;;;;;;;4997155;28;20029;-78
2022/06/23 13:21:22;;;;;;;4.55;1.58;;;;;;;;;;4997309;28;20062;-77
2022/06/23 13:23:52;;;;;;;4.45;1.83;;;;;;;;;;4978715;28;20081;-77
2022/06/23 13:26:37;;;;;;;2.45;1.40;;;;;;;;;;4997042;28;20038;-76
2022/06/23 13:29:16;;;;;;;2.08;1.42;;;;;;;;;;4996779;28;20056;-78
2022/06/23 13:32:07;;;;;;;2.53;1.50;;;;;;;;;;4978786;28;20392;-78
2022/06/23 13:34:40;;;;;;;2.00;1.50;;;;;;;;;;4997089;28;20483;-77
2022/06/23 13:37:17;;;;;;;2.20;1.30;;;;;;;;;;4996834;28;20033;-77
2022/06/23 13:40:21;;;;;;;2.97;1.40;;;;;;;;;;5000587;28;20053;-76
2022/06/23 13:42:56;;;;;;;;;;;;;;;;;;4985274;28;20073;-77
2022/06/23 13:45:33;;;;;;;1.80;1.35;;;;;;;;;;5005073;28;19957;-76
2022/06/23 13:48:12;;;;;;;4.78;1.48;;;;;;;;;;5005545;28;20113;-77
2022/06/23 13:51:02;;;;;;;2.40;1.40;;;;;;;;;;5003311;28;20022;-76
2022/06/23 13:54:05;;;;;;;4.68;1.17;;;;;;;;;;5002390;28;20026;-76
2022/06/23 13:57:15;;;;;;;1.55;1.20;;;;;;;;;;5001373;28;20023;-78
2022/06/23 13:59:56;;;;;;;2.67;1.20;;;;;;;;;;4942538;29;20409;-77
2022/06/23 14:02:41;;;;;;;3.70;1.30;;;;;;;;;;4980934;28;20120;-77
2022/06/23 14:05:23;;;;;;;3.78;1.30;;;;;;;;;;4999568;28;20050;-77
2022/06/23 14:08:04;;;;;;;3.60;1.30;;;;;;;;;;5002923;28;20026;-76
2022/06/23 14:10:38;;;;;;;2.08;1.13;;;;;;;;;;5002346;28;20026;-77
2022/06/23 14:13:19;;;;;;;3.80;1.48;;;;;;;;;;5000778;28;20030;-76
2022/06/23 14:16:07;;;;;;;3.13;1.40;;;;;;;;;;5001091;28;20189;-77
2022/06/23 14:18:36;;;;;;;2.15;1.48;;;;;;;;;;5000036;28;20041;-77
2022/06/23 14:21:27;;;;;;;3.58;1.30;;;;;;;;;;4998111;28;20105;-77
2022/06/23 14:24:04;;;;;;;4.45;1.48;;;;;;;;;;4996369;28;20081;-78
2022/06/23 14:26:40;;;;;;;4.65;1.50;;;;;;;;;;4978643;28;20117;-78
2022/06/23 14:29:25;;;;;;;2.15;1.40;;;;;;;;;;4995950;28;20030;-77
2022/06/23 14:32:27;;;;;;;2.25;1.40;;;;;;;;;;4996618;28;20484;-76
2022/06/23 14:35:05;;;;;;;2.08;1.42;;;;;;;;;;4966480;28;20136;-75
2022/06/23 14:37:40;;;;;;;1.70;1.42;;;;;;;;;;4997432;28;20023;-78
2022/06/23 14:40:11;;;;;;;2.10;1.55;;;;;;;;;;4998213;28;20113;-76
2022/06/23 14:43:10;;;;;;;2.10;1.30;;;;;;;;;;4979031;28;20033;-77
2022/06/23 14:46:01;;;;;;;3.35;1.90;;;;;;;;;;4994408;28;20044;-77
2022/06/23 14:49:13;;;;;;;2.72;1.35;;;;;;;;;;4995155;28;20045;-77
2022/06/23 14:51:43;;;;;;;3.80;1.35;;;;;;;;;;4917499;29;20597;-78
2022/06/23 14:54:32;;;;;;;1.33;1.23;;;;;;;;;;4919627;29;20036;-77
2022/06/23 14:57:17;;;;;;;2.05;1.42;;;;;;;;;;4972066;28;20126;-77
2022/06/23 14:59:56;;;;;;;4.70;1.70;;;;;;;;;;4998306;28;20109;-77
2022/06/23 15:02:32;;;;;;;3.15;1.50;;;;;;;;;;4980805;28;20038;-78
2022/06/23 15:05:19;;;;;;;5.93;1.30;;;;;;;;;;4998258;28;20146;-77
2022/06/23 15:08:00;;;;;;;2.03;1.30;;;;;;;;;;4998317;28;20026;-78
2022/06/23 15:10:41;;;;;;;3.80;1.60;;;;;;;;;;4998046;28;20034;-77
2022/06/23 15:13:22;;;;;;;4.10;1.42;;;;;;;;;;4981040;28;20030;-78
2022/06/23 15:15:55;;;;;;;1.50;1.40;;;;;;;;;;4998592;28;20096;-77
2022/06/23 15:18:30;;;;;;;3.40;1.53;;;;;;;;;;4998257;28;20026;-78
2022/06/23 15:21:02;;;;;;;3.92;1.50;;;;;;;;;;4981122;28;20677;-78
2022/06/23 15:23:42;;;;;;;2.92;1.40;;;;;;;;;;4980148;28;20073;-77
2022/06/23 15:26:28;;;;;;;2.38;1.40;;;;;;;;;;4998138;28;20022;-77
2022/06/23 15:29:04;;;;;;;2.63;1.40;;;;;;;;;;4997634;28;20030;-76
2022/06/23 15:31:49;;;;;;;2.05;1.45;;;;;;;;;;4999480;28;20526;-77
2022/06/23 15:34:17;;;;;;;4.78;1.70;;;;;;;;;;4998158;28;20045;-77
2022/06/23 15:37:05;;;;;;;4.05;1.50;;;;;;;;;;4997160;28;20022;-80
2022/06/23 15:39:55;;;;;;;3.78;1.50;;;;;;;;;;4997616;28;20036;-76
2022/06/23 15:42:47;;;;;;;6.18;1.45;;;;;;;;;;5001812;28;20102;-78
2022/06/23 15:45:35;;;;;;;3.38;1.52;;;;;;;;;;4982049;28;20034;-78
2022/06/23 15:48:14;;;;;;;3.03;1.60;;;;;;;;;;4997603;28;20451;-76
2022/06/23 15:50:55;;;;;;;4.60;1.60;;;;;;;;;;4998901;28;20099;-76
2022/06/23 15:53:54;;;;;;;2.83;1.70;;;;;;;;;;4979885;28;20026;-77
2022/06/23 15:56:29;;;;;;;4.15;1.90;;;;;;;;;;4997237;28;20104;-77
2022/06/23 15:59:09;;;;;;;3.83;1.63;;;;;;;;;;4997525;28;20054;-77
2022/06/23 16:02:03;;;;;;;1.70;1.50;;;;;;;;;;4997066;28;20030;-78
2022/06/23 16:04:33;;;;;;;2.90;1.80;;;;;;;;;;4998762;28;20376;-77